Time;durP1;ratioP1;P1;durP2;ratioP2;P2;SDS_P1;SDS_P2;PMS_P1;PMS_P2;Temp;Humidity;BMP_temperature;BMP_pressure;BME280_temperature;BME280_humidity;BME280_pressure;Samples;Min_cycle;Max_cycle;Signal;HPM_P1;HPM_P2
2021/03/29 00:01:04;;;;;;;5.80;3.72;;;6.90;99.90;;;;;;5137176;27;20655;-69
2021/03/29 00:03:30;;;;;;;5.22;3.40;;;6.90;99.90;;;;;;5136733;27;20274;-68
2021/03/29 00:05:55;;;;;;;6.20;3.73;;;6.80;99.90;;;;;;5118518;27;20219;-68
2021/03/29 00:08:28;;;;;;;5.20;3.47;;;6.70;99.90;;;;;;5136662;27;20474;-69
2021/03/29 00:10:56;;;;;;;3.55;2.90;;;6.60;99.90;;;;;;5136613;27;20171;-66
2021/03/29 00:13:24;;;;;;;3.53;2.95;;;6.60;99.90;;;;;;5136665;27;20336;-69
2021/03/29 00:15:52;;;;;;;5.65;3.72;;;6.60;99.90;;;;;;5136808;27;20183;-66
2021/03/29 00:18:18;;;;;;;5.70;4.18;;;6.60;99.90;;;;;;5136639;27;20190;-68
2021/03/29 00:20:49;;;;;;;5.95;3.55;;;6.50;99.90;;;;;;5136590;27;20175;-68
2021/03/29 00:23:16;;;;;;;5.35;3.60;;;6.60;99.90;;;;;;5118026;27;20228;-66
2021/03/29 00:25:42;;;;;;;5.88;3.55;;;6.40;99.90;;;;;;5136552;27;20187;-68
2021/03/29 00:28:08;;;;;;;9.27;3.33;;;6.40;99.90;;;;;;5136286;27;20246;-67
2021/03/29 00:30:40;;;;;;;10.30;4.23;;;6.40;99.90;;;;;;5136440;27;20198;-66
2021/03/29 00:33:07;;;;;;;4.38;2.88;;;6.30;99.90;;;;;;5136227;27;20199;-67
2021/03/29 00:35:37;;;;;;;5.10;2.92;;;6.30;99.90;;;;;;5136276;27;20553;-66
2021/03/29 00:38:04;;;;;;;4.32;2.60;;;6.30;99.90;;;;;;5136142;27;20219;-66
2021/03/29 00:40:30;;;;;;;2.97;2.67;;;6.40;99.90;;;;;;5117707;27;20636;-69
2021/03/29 00:43:12;;;;;;;4.65;2.92;;;6.40;99.90;;;;;;5135896;27;20199;-69
2021/03/29 00:45:40;;;;;;;4.07;3.67;;;6.50;99.90;;;;;;5135965;27;20696;-66
2021/03/29 00:48:08;;;;;;;3.35;2.45;;;6.50;99.90;;;;;;5135842;27;20727;-66
2021/03/29 00:50:37;;;;;;;4.03;2.67;;;6.30;99.90;;;;;;5117427;27;20171;-68
2021/03/29 00:53:03;;;;;;;3.05;2.72;;;6.10;99.90;;;;;;5135717;27;20190;-68
2021/03/29 00:55:30;;;;;;;4.82;3.30;;;6.00;99.90;;;;;;5135917;27;20174;-66
2021/03/29 00:57:56;;;;;;;4.07;3.38;;;6.00;99.90;;;;;;5117251;27;20199;-66
2021/03/29 01:00:32;;;;;;;5.25;3.22;;;5.90;99.90;;;;;;5135818;27;20186;-68
2021/03/29 01:02:58;;;;;;;4.05;3.00;;;5.90;99.90;;;;;;5135628;27;20331;-66
2021/03/29 01:05:23;;;;;;;4.17;3.30;;;5.90;99.90;;;;;;5134823;27;20198;-66
2021/03/29 01:07:53;;;;;;;4.57;4.20;;;5.90;99.90;;;;;;5135403;27;20230;-69
2021/03/29 01:10:20;;;;;;;4.47;3.05;;;5.90;99.90;;;;;;5117136;27;20171;-66
2021/03/29 01:12:46;;;;;;;6.18;4.47;;;5.90;99.90;;;;;;5116950;27;20175;-66
2021/03/29 01:15:15;;;;;;;8.10;4.25;;;5.80;99.90;;;;;;5135444;27;20262;-66
2021/03/29 01:17:44;;;;;;;6.20;3.65;;;5.80;99.90;;;;;;5135379;27;20546;-66
2021/03/29 01:20:35;;;;;;;5.30;3.17;;;5.60;99.90;;;;;;5116773;27;20181;-68
2021/03/29 01:23:01;;;;;;;6.53;3.63;;;5.50;99.90;;;;;;5135381;27;20551;-68
2021/03/29 01:25:35;;;;;;;5.80;3.60;;;5.50;99.90;;;;;;5135406;27;20182;-69
2021/03/29 01:28:09;;;;;;;3.65;2.97;;;5.50;99.90;;;;;;5116667;27;20242;-66
2021/03/29 01:30:37;;;;;;;7.35;4.63;;;5.50;99.90;;;;;;5116834;27;20647;-68
2021/03/29 01:33:06;;;;;;;3.90;3.22;;;5.30;99.90;;;;;;5135035;27;20191;-66
2021/03/29 01:35:33;;;;;;;4.53;3.55;;;5.30;99.90;;;;;;5135244;27;20182;-68
2021/03/29 01:38:00;;;;;;;4.63;3.20;;;5.40;99.90;;;;;;5135031;27;20278;-66
2021/03/29 01:40:26;;;;;;;8.68;4.40;;;5.30;99.90;;;;;;5135149;27;20175;-66
2021/03/29 01:42:53;;;;;;;4.03;3.25;;;5.30;99.90;;;;;;5116535;27;20676;-66
2021/03/29 01:45:20;;;;;;;4.03;3.47;;;5.10;99.90;;;;;;5116316;27;20220;-69
2021/03/29 01:47:47;;;;;;;5.13;3.42;;;5.20;99.90;;;;;;5134760;27;20218;-67
2021/03/29 01:50:18;;;;;;;2.97;2.38;;;5.20;99.90;;;;;;5134985;27;20172;-69
2021/03/29 01:52:44;;;;;;;3.25;2.90;;;5.10;99.90;;;;;;5134875;27;20159;-66
2021/03/29 01:55:11;;;;;;;4.45;4.10;;;5.20;99.90;;;;;;5134848;27;20175;-68
2021/03/29 01:57:37;;;;;;;8.23;3.90;;;5.20;99.90;;;;;;5134689;27;20302;-67
2021/03/29 02:00:15;;;;;;;6.70;3.47;;;5.20;99.90;;;;;;5116462;28;20208;-67
2021/03/29 02:02:42;;;;;;;4.97;3.63;;;5.30;99.90;;;;;;5134733;27;20407;-68
2021/03/29 02:05:10;;;;;;;4.15;2.72;;;5.20;99.90;;;;;;5134707;28;20171;-69
2021/03/29 02:07:37;;;;;;;5.60;3.42;;;5.10;99.90;;;;;;5134471;28;20302;-67
2021/03/29 02:10:08;;;;;;;5.93;3.47;;;4.90;99.90;;;;;;5134710;28;20192;-67
2021/03/29 02:12:34;;;;;;;6.93;3.38;;;5.00;99.90;;;;;;5134636;28;20167;-66
2021/03/29 02:15:01;;;;;;;3.60;3.00;;;5.10;99.90;;;;;;5135055;27;20179;-66
2021/03/29 02:17:27;;;;;;;3.97;3.60;;;5.20;99.90;;;;;;5138861;27;20414;-66
2021/03/29 02:19:54;;;;;;;4.20;2.70;;;5.10;99.90;;;;;;5138746;27;20190;-69
2021/03/29 02:22:20;;;;;;;5.25;4.50;;;5.10;99.90;;;;;;5120359;27;20178;-66
2021/03/29 02:24:46;;;;;;;4.77;3.53;;;4.90;99.90;;;;;;5138702;27;20248;-66
2021/03/29 02:27:12;;;;;;;4.43;3.15;;;4.80;99.90;;;;;;5138559;27;20474;-66
2021/03/29 02:29:38;;;;;;;3.70;3.40;;;4.90;99.90;;;;;;5138603;27;20255;-67
2021/03/29 02:32:05;;;;;;;3.72;2.90;;;5.00;99.90;;;;;;5139148;27;20262;-67
2021/03/29 02:34:31;;;;;;;4.93;3.17;;;5.00;99.90;;;;;;5119983;27;20241;-66
2021/03/29 02:36:57;;;;;;;6.13;3.23;;;5.00;99.90;;;;;;5138495;27;20206;-68
2021/03/29 02:39:23;;;;;;;4.32;2.75;;;4.90;99.90;;;;;;5138425;27;20273;-68
2021/03/29 02:41:50;;;;;;;5.60;3.50;;;4.90;99.90;;;;;;5138987;27;20616;-68
2021/03/29 02:44:17;;;;;;;3.45;2.45;;;4.70;99.90;;;;;;5138315;27;20437;-66
2021/03/29 02:46:43;;;;;;;5.20;3.35;;;4.70;99.90;;;;;;5119629;27;20229;-66
2021/03/29 02:49:10;;;;;;;3.60;2.92;;;4.80;99.90;;;;;;5138136;27;20727;-66
2021/03/29 02:51:41;;;;;;;4.15;2.75;;;4.90;99.90;;;;;;5138613;27;20612;-68
2021/03/29 02:54:09;;;;;;;3.05;2.80;;;4.70;99.90;;;;;;5138203;27;20289;-68
2021/03/29 02:56:38;;;;;;;3.65;2.83;;;4.70;99.90;;;;;;5138530;27;20504;-66
2021/03/29 02:59:08;;;;;;;4.50;2.45;;;4.60;99.90;;;;;;5138101;27;20604;-66
2021/03/29 03:01:38;;;;;;;5.93;3.22;;;4.50;99.90;;;;;;5138497;27;20530;-67
2021/03/29 03:04:06;;;;;;;7.25;3.40;;;4.20;99.90;;;;;;5138065;27;20191;-68
2021/03/29 03:06:32;;;;;;;3.40;2.78;;;4.40;99.90;;;;;;5138290;27;20193;-66
2021/03/29 03:09:01;;;;;;;6.97;2.88;;;4.60;99.90;;;;;;5137836;27;20626;-68
2021/03/29 03:11:28;;;;;;;4.30;2.53;;;4.50;99.90;;;;;;5138181;27;20568;-66
2021/03/29 03:13:54;;;;;;;6.43;3.80;;;4.70;99.90;;;;;;5137672;27;20195;-66
2021/03/29 03:16:19;;;;;;;4.72;3.50;;;4.70;99.90;;;;;;5138144;27;20171;-66
2021/03/29 03:18:48;;;;;;;5.40;3.50;;;4.70;99.90;;;;;;5137686;27;20202;-68
2021/03/29 03:21:16;;;;;;;8.20;3.90;;;4.70;99.90;;;;;;5137641;27;20194;-66
2021/03/29 03:23:51;;;;;;;4.63;2.90;;;4.70;99.90;;;;;;5137617;27;20195;-68
2021/03/29 03:26:17;;;;;;;6.32;4.65;;;4.60;99.90;;;;;;5137684;27;20181;-66
2021/03/29 03:28:42;;;;;;;8.77;6.03;;;4.60;99.90;;;;;;5136621;27;20226;-66
2021/03/29 03:31:08;;;;;;;10.93;5.50;;;4.60;99.90;;;;;;5137766;27;20536;-69
2021/03/29 03:33:33;;;;;;;6.90;5.17;;;4.80;99.90;;;;;;5137265;27;20195;-66
2021/03/29 03:35:59;;;;;;;9.17;6.53;;;4.70;99.90;;;;;;5137341;27;20178;-66
2021/03/29 03:38:35;;;;;;;13.00;6.37;;;4.70;99.90;;;;;;5118855;27;20192;-68
2021/03/29 03:41:07;;;;;;;11.75;6.13;;;4.50;99.90;;;;;;5137690;27;20562;-66
2021/03/29 03:43:40;;;;;;;11.32;7.78;;;4.40;99.90;;;;;;5137152;27;20202;-68
2021/03/29 03:46:07;;;;;;;7.38;5.95;;;4.40;99.90;;;;;;5137074;27;20671;-66
2021/03/29 03:48:36;;;;;;;9.30;5.78;;;4.40;99.90;;;;;;5136928;27;20691;-68
2021/03/29 03:51:02;;;;;;;6.38;5.25;;;4.60;99.90;;;;;;5137352;27;20643;-67
2021/03/29 03:53:28;;;;;;;9.35;6.38;;;4.50;99.90;;;;;;5137037;27;20200;-66
2021/03/29 03:55:56;;;;;;;9.48;5.53;;;4.40;99.90;;;;;;5137229;27;20254;-69
2021/03/29 03:58:22;;;;;;;7.63;6.32;;;4.50;99.90;;;;;;5118448;27;20206;-70
2021/03/29 04:00:48;;;;;;;6.70;6.00;;;4.40;99.90;;;;;;5137125;27;20171;-69
2021/03/29 04:03:14;;;;;;;11.90;6.47;;;4.20;99.90;;;;;;5136828;27;20463;-66
2021/03/29 04:05:40;;;;;;;8.97;5.30;;;4.20;99.90;;;;;;5136955;27;20214;-68
2021/03/29 04:08:06;;;;;;;6.03;4.83;;;4.50;99.90;;;;;;5136690;27;20226;-68
2021/03/29 04:10:44;;;;;;;7.60;6.72;;;4.40;99.90;;;;;;5136716;27;20424;-68
2021/03/29 04:13:16;;;;;;;12.00;5.72;;;4.60;99.90;;;;;;5118167;27;20280;-69
2021/03/29 04:15:42;;;;;;;9.85;5.50;;;4.60;99.90;;;;;;5118221;27;20183;-66
2021/03/29 04:18:08;;;;;;;9.27;7.10;;;4.70;99.90;;;;;;5136476;27;20187;-69
2021/03/29 04:20:34;;;;;;;8.85;6.00;;;4.80;99.90;;;;;;5136587;27;20232;-68
2021/03/29 04:23:00;;;;;;;8.80;5.50;;;4.80;99.90;;;;;;5136351;27;20187;-66
2021/03/29 04:25:26;;;;;;;6.60;6.00;;;4.90;99.90;;;;;;5136306;27;20187;-66
2021/03/29 04:27:52;;;;;;;4.53;4.10;;;4.90;99.90;;;;;;5136143;27;21018;-66
2021/03/29 04:30:19;;;;;;;5.03;3.97;;;5.20;99.90;;;;;;5117857;27;20206;-66
2021/03/29 04:32:49;;;;;;;8.18;4.35;;;5.40;99.90;;;;;;5136219;27;20727;-66
2021/03/29 04:35:15;;;;;;;8.85;5.95;;;5.60;99.90;;;;;;5136357;27;20621;-68
2021/03/29 04:37:42;;;;;;;11.07;4.07;;;5.70;99.90;;;;;;5136007;27;20171;-67
2021/03/29 04:40:08;;;;;;;5.55;4.22;;;5.80;99.90;;;;;;5136122;27;20167;-69
2021/03/29 04:42:34;;;;;;;9.20;4.18;;;5.90;99.90;;;;;;5135886;27;20266;-68
2021/03/29 04:44:59;;;;;;;7.23;5.07;;;5.90;99.90;;;;;;5136016;27;20202;-66
2021/03/29 04:47:25;;;;;;;3.53;2.77;;;5.80;99.90;;;;;;5117534;27;20275;-68
2021/03/29 04:49:50;;;;;;;4.07;3.73;;;6.10;99.90;;;;;;5135669;27;20676;-66
2021/03/29 04:52:16;;;;;;;6.00;3.90;;;6.10;99.90;;;;;;5135961;27;20171;-67
2021/03/29 04:54:42;;;;;;;3.50;3.20;;;6.10;99.90;;;;;;5135718;27;20202;-68
2021/03/29 04:57:07;;;;;;;5.60;3.37;;;6.20;99.90;;;;;;5117543;27;20444;-68
2021/03/29 04:59:33;;;;;;;3.03;2.60;;;6.50;99.90;;;;;;5135629;27;20206;-68
2021/03/29 05:01:58;;;;;;;4.07;3.07;;;6.50;99.90;;;;;;5135734;27;20519;-69
2021/03/29 05:04:24;;;;;;;6.30;4.13;;;6.00;99.90;;;;;;5135647;27;20656;-66
2021/03/29 05:06:50;;;;;;;4.27;3.33;;;5.50;99.90;;;;;;5136066;27;20171;-66
2021/03/29 05:09:16;;;;;;;5.70;3.63;;;5.50;99.90;;;;;;5135494;27;20856;-66
2021/03/29 05:11:49;;;;;;;4.33;3.80;;;5.40;99.90;;;;;;5135942;27;20176;-69
2021/03/29 05:14:15;;;;;;;4.93;3.85;;;5.60;99.90;;;;;;5135590;27;20562;-66
2021/03/29 05:16:44;;;;;;;9.70;5.30;;;5.90;99.90;;;;;;5135788;27;20236;-66
2021/03/29 05:19:11;;;;;;;4.65;3.90;;;6.00;99.90;;;;;;5135379;27;20546;-68
2021/03/29 05:21:37;;;;;;;5.50;3.78;;;6.10;99.90;;;;;;5135752;27;20186;-66
2021/03/29 05:24:04;;;;;;;6.90;4.70;;;6.20;99.90;;;;;;5116770;27;20611;-66
2021/03/29 05:26:30;;;;;;;5.57;4.75;;;6.30;99.90;;;;;;5135533;27;20269;-66
2021/03/29 05:28:55;;;;;;;9.00;4.80;;;6.30;99.90;;;;;;5135195;27;20368;-68
2021/03/29 05:31:21;;;;;;;6.50;4.40;;;6.30;99.90;;;;;;5135205;27;20200;-68
2021/03/29 05:33:48;;;;;;;7.67;5.90;;;6.40;99.90;;;;;;5135019;27;20191;-66
2021/03/29 05:36:15;;;;;;;11.15;6.45;;;6.60;99.90;;;;;;5135496;27;20567;-68
2021/03/29 05:38:41;;;;;;;11.60;10.40;;;6.80;99.90;;;;;;5134880;27;20196;-68
2021/03/29 05:41:13;;;;;;;11.30;8.05;;;6.70;99.90;;;;;;5135267;27;20175;-69
2021/03/29 05:43:43;;;;;;;19.10;13.55;;;6.70;99.90;;;;;;5116551;28;20563;-66
2021/03/29 05:46:09;;;;;;;15.50;8.95;;;6.80;99.90;;;;;;5116325;27;20218;-69
2021/03/29 05:48:36;;;;;;;8.90;6.18;;;6.70;99.90;;;;;;5134815;27;20219;-66
2021/03/29 05:51:04;;;;;;;6.55;5.95;;;6.90;99.90;;;;;;5115995;27;20310;-68
2021/03/29 05:53:29;;;;;;;99.28;35.92;;;7.00;99.90;;;;;;5134717;27;20194;-68
2021/03/29 05:55:56;;;;;;;52.73;20.03;;;6.90;99.90;;;;;;5134835;27;20179;-68
2021/03/29 06:00:52;;;;;;;280.98;103.45;;;7.20;99.90;;;;;;5121251;27;20182;-67
2021/03/29 06:03:35;;;;;;;128.05;42.28;;;7.30;99.90;;;;;;5125003;27;20199;-69
2021/03/29 06:06:21;;;;;;;20.02;8.25;;;7.50;99.90;;;;;;5120700;28;20262;-68
2021/03/29 06:08:51;;;;;;;7.65;4.85;;;7.50;99.90;;;;;;5111711;28;20227;-67
2021/03/29 06:11:35;;;;;;;8.80;4.35;;;7.60;99.90;;;;;;5125381;28;20262;-66
2021/03/29 06:14:21;;;;;;;10.10;4.65;;;7.70;99.90;;;;;;5117024;28;20237;-66
2021/03/29 06:16:59;;;;;;;7.55;5.15;;;7.90;99.90;;;;;;5098453;28;20649;-66
2021/03/29 06:19:47;;;;;;;4.88;3.67;;;8.20;99.90;;;;;;5116901;28;20207;-69
2021/03/29 06:22:13;;;;;;;6.25;5.03;;;8.40;99.90;;;;;;5103806;28;20236;-66
2021/03/29 06:24:58;;;;;;;10.00;4.40;;;8.50;99.90;;;;;;5118167;28;20215;-66
2021/03/29 06:27:27;;;;;;;5.15;4.65;;;8.70;99.90;;;;;;5106517;28;20272;-68
2021/03/29 06:30:17;;;;;;;7.20;5.53;;;8.90;99.90;;;;;;5117612;28;20179;-66
2021/03/29 06:32:52;;;;;;;5.97;4.18;;;9.10;99.90;;;;;;5123730;28;20293;-66
2021/03/29 06:35:19;;;;;;;6.93;4.43;;;9.30;99.90;;;;;;5116133;28;20269;-66
2021/03/29 06:37:45;;;;;;;5.65;4.32;;;9.40;99.90;;;;;;5123456;28;20291;-66
2021/03/29 06:40:11;;;;;;;10.17;3.63;;;9.50;99.90;;;;;;5123592;28;20267;-66
2021/03/29 06:42:37;;;;;;;4.78;3.10;;;9.70;99.90;;;;;;5123434;28;20747;-69
2021/03/29 06:45:14;;;;;;;6.17;3.27;;;9.90;99.90;;;;;;5100216;28;20183;-66
2021/03/29 06:47:40;;;;;;;5.97;4.10;;;10.10;99.90;;;;;;5120031;28;20251;-69
2021/03/29 06:50:06;;;;;;;8.20;4.00;;;10.20;99.90;;;;;;5121057;28;20266;-67
2021/03/29 06:52:34;;;;;;;5.63;3.70;;;10.40;99.90;;;;;;5123140;28;20428;-67
2021/03/29 06:55:26;;;;;;;5.07;3.05;;;10.70;99.90;;;;;;5116982;28;20175;-69
2021/03/29 06:58:25;;;;;;;4.45;2.85;;;10.90;99.90;;;;;;5132237;28;20327;-65
2021/03/29 07:00:55;;;;;;;4.65;3.00;;;11.00;99.90;;;;;;5121094;27;20187;-65
2021/03/29 07:03:21;;;;;;;4.10;3.70;;;11.20;99.90;;;;;;5117314;27;20203;-65
2021/03/29 07:05:48;;;;;;;8.80;3.03;;;11.20;99.90;;;;;;5116547;27;20479;-66
2021/03/29 07:08:14;;;;;;;5.03;3.15;;;11.50;99.90;;;;;;5127524;27;20683;-66
2021/03/29 07:10:40;;;;;;;4.33;3.53;;;11.60;99.90;;;;;;5120353;27;20186;-68
2021/03/29 07:13:08;;;;;;;4.23;2.73;;;11.70;99.90;;;;;;5122577;27;20208;-68
2021/03/29 07:15:36;;;;;;;6.45;4.00;;;11.70;99.90;;;;;;5127499;27;20206;-66
2021/03/29 07:18:03;;;;;;;5.05;2.67;;;11.90;99.90;;;;;;5134051;27;20191;-66
2021/03/29 07:20:31;;;;;;;2.80;1.75;;;12.10;99.90;;;;;;5098039;28;20216;-66
2021/03/29 07:22:57;;;;;;;5.45;1.52;;;12.10;99.90;;;;;;5119223;27;20208;-65
2021/03/29 07:25:31;;;;;;;1.60;1.50;;;12.40;99.90;;;;;;5125568;27;20183;-67
2021/03/29 07:27:59;;;;;;;1.73;1.60;;;12.50;99.90;;;;;;5119895;27;20225;-66
2021/03/29 07:30:49;;;;;;;2.30;1.90;;;12.80;99.90;;;;;;5115935;28;20168;-66
2021/03/29 07:33:19;;;;;;;3.17;2.50;;;12.90;99.90;;;;;;5114572;28;20191;-69
2021/03/29 07:35:49;;;;;;;5.00;1.90;;;12.90;99.90;;;;;;5119010;27;20187;-67
2021/03/29 07:38:16;;;;;;;2.93;2.50;;;13.00;99.90;;;;;;5098391;28;20976;-69
2021/03/29 07:40:44;;;;;;;6.47;4.50;;;13.00;99.00;;;;;;5114537;28;20435;-66
2021/03/29 07:43:18;;;;;;;2.80;2.10;;;13.30;99.10;;;;;;5127876;27;20917;-70
2021/03/29 07:46:05;;;;;;;6.60;2.37;;;13.20;96.80;;;;;;5109791;28;20463;-68
2021/03/29 07:48:37;;;;;;;2.57;1.80;;;13.40;96.90;;;;;;5096994;28;20516;-69
2021/03/29 07:51:11;;;;;;;3.07;2.67;;;13.60;94.10;;;;;;5127278;27;20423;-68
2021/03/29 07:53:43;;;;;;;7.03;2.73;;;13.70;94.40;;;;;;5105286;28;20435;-69
2021/03/29 07:56:10;;;;;;;2.03;1.07;;;14.00;93.90;;;;;;5126513;27;20431;-69
2021/03/29 07:58:46;;;;;;;3.30;2.20;;;14.00;92.90;;;;;;5112701;27;20445;-69
2021/03/29 08:01:14;;;;;;;2.57;2.17;;;14.00;91.40;;;;;;5122276;27;20760;-66
2021/03/29 08:03:44;;;;;;;3.30;1.97;;;14.10;91.70;;;;;;5100781;28;20534;-69
2021/03/29 08:06:35;;;;;;;3.57;1.70;;;14.20;90.50;;;;;;5127540;27;20428;-67
2021/03/29 08:09:01;;;;;;;2.00;1.47;;;14.40;90.50;;;;;;5121610;27;21011;-70
2021/03/29 08:11:54;;;;;;;3.43;1.50;;;14.60;90.20;;;;;;5111768;28;20424;-68
2021/03/29 08:14:31;;;;;;;2.20;1.40;;;14.70;88.10;;;;;;5128522;27;20272;-68
2021/03/29 08:16:57;;;;;;;1.87;1.67;;;15.00;88.20;;;;;;5120545;27;20932;-69
2021/03/29 08:19:26;;;;;;;1.80;1.53;;;14.90;86.50;;;;;;5122157;27;20456;-67
2021/03/29 08:22:16;;;;;;;5.50;2.13;;;15.10;87.60;;;;;;5122999;27;20519;-66
2021/03/29 08:24:44;;;;;;;5.07;1.87;;;15.10;84.90;;;;;;5125351;27;20435;-66
2021/03/29 08:27:19;;;;;;;3.73;1.97;;;15.40;86.30;;;;;;5123768;27;20427;-67
2021/03/29 08:29:49;;;;;;;2.10;1.23;;;15.80;88.20;;;;;;5105126;27;20521;-67
2021/03/29 08:32:34;;;;;;;2.80;1.60;;;16.00;85.90;;;;;;5109416;27;20455;-66
2021/03/29 08:35:05;;;;;;;2.03;1.60;;;16.70;84.20;;;;;;5107725;27;20454;-66
2021/03/29 08:37:51;;;;;;;3.57;2.07;;;17.10;81.40;;;;;;5115580;27;20444;-67
2021/03/29 08:40:25;;;;;;;1.60;1.30;;;17.40;78.00;;;;;;5122721;27;20442;-69
2021/03/29 08:42:53;;;;;;;1.60;1.50;;;17.20;76.10;;;;;;5120229;27;20664;-70
2021/03/29 08:45:24;;;;;;;1.90;1.70;;;17.50;76.80;;;;;;5122221;27;20739;-67
2021/03/29 08:47:55;;;;;;;2.60;2.37;;;18.30;74.20;;;;;;5118475;27;20832;-69
2021/03/29 08:50:31;;;;;;;2.33;1.90;;;18.50;73.50;;;;;;5099206;27;20434;-68
2021/03/29 08:53:00;;;;;;;2.40;2.20;;;18.80;72.50;;;;;;5118860;27;20521;-68
2021/03/29 08:55:34;;;;;;;2.73;2.00;;;19.30;71.80;;;;;;5118183;27;20428;-66
2021/03/29 08:58:01;;;;;;;7.00;1.93;;;18.80;69.90;;;;;;5115479;27;20447;-70
2021/03/29 09:00:30;;;;;;;3.20;2.53;;;18.40;70.80;;;;;;5116464;27;20428;-69
2021/03/29 09:02:56;;;;;;;2.40;2.10;;;18.60;69.80;;;;;;5096146;27;20767;-70
2021/03/29 09:05:23;;;;;;;2.43;2.03;;;19.40;69.60;;;;;;5123885;27;20459;-68
2021/03/29 09:07:53;;;;;;;2.27;1.73;;;19.70;68.40;;;;;;5113864;27;20327;-67
2021/03/29 09:10:31;;;;;;;2.50;2.10;;;20.10;67.60;;;;;;5123001;27;20837;-66
2021/03/29 09:12:57;;;;;;;2.40;1.93;;;20.00;65.80;;;;;;5120779;27;20447;-67
2021/03/29 09:15:24;;;;;;;3.13;1.70;;;19.20;66.60;;;;;;5127820;27;20427;-67
2021/03/29 09:18:02;;;;;;;2.93;2.43;;;19.00;66.80;;;;;;5100316;27;20673;-70
2021/03/29 09:20:33;;;;;;;2.53;2.07;;;19.00;66.60;;;;;;5125629;27;20431;-67
2021/03/29 09:22:59;;;;;;;3.60;2.47;;;18.80;66.60;;;;;;5115860;27;21065;-67
2021/03/29 09:25:36;;;;;;;5.67;3.90;;;19.10;66.40;;;;;;5116391;27;20416;-67
2021/03/29 09:30:51;;;;;;;4.37;1.77;;;19.10;65.20;;;;;;5118972;27;20517;-67
2021/03/29 09:33:18;;;;;;;3.77;3.03;;;19.30;65.90;;;;;;5123412;27;20462;-70
2021/03/29 09:35:45;;;;;;;2.07;1.80;;;19.60;66.70;;;;;;5122420;27;20447;-70
2021/03/29 09:38:12;;;;;;;4.63;2.70;;;19.80;66.70;;;;;;5119864;27;20462;-70
2021/03/29 09:40:38;;;;;;;7.03;4.43;;;20.00;65.80;;;;;;5117321;27;20490;-67
2021/03/29 09:43:04;;;;;;;5.87;4.10;;;19.70;66.50;;;;;;5122462;27;20849;-68
2021/03/29 09:45:33;;;;;;;2.87;2.57;;;19.30;65.10;;;;;;5123376;27;20294;-67
2021/03/29 09:48:10;;;;;;;2.50;1.87;;;18.70;66.60;;;;;;5117059;27;20503;-67
2021/03/29 09:50:41;;;;;;;3.90;1.73;;;18.80;65.00;;;;;;5113206;28;20493;-69
2021/03/29 09:53:17;;;;;;;4.20;2.17;;;19.10;66.80;;;;;;5103310;28;20491;-69
2021/03/29 09:55:56;;;;;;;3.63;2.03;;;19.40;65.80;;;;;;5114633;27;20932;-67
2021/03/29 09:58:24;;;;;;;2.80;2.23;;;19.00;65.10;;;;;;5125884;27;20456;-69
2021/03/29 10:00:52;;;;;;;3.27;2.80;;;19.30;65.50;;;;;;5122186;27;20427;-69
2021/03/29 10:03:20;;;;;;;2.53;1.90;;;19.10;66.10;;;;;;5115651;28;20517;-67
2021/03/29 10:05:46;;;;;;;2.70;2.20;;;19.10;66.00;;;;;;5118964;27;20423;-67
2021/03/29 10:08:26;;;;;;;4.10;2.90;;;19.40;66.50;;;;;;5120986;27;20499;-69
2021/03/29 10:10:58;;;;;;;2.50;1.97;;;19.70;65.30;;;;;;5103672;28;20456;-70
2021/03/29 10:13:32;;;;;;;1.50;1.40;;;19.90;66.30;;;;;;5125342;27;20447;-69
2021/03/29 10:16:14;;;;;;;3.27;1.97;;;19.60;64.30;;;;;;5124042;27;20428;-69
2021/03/29 10:18:40;;;;;;;1.87;1.73;;;18.80;64.90;;;;;;5122404;28;20446;-70
2021/03/29 10:21:07;;;;;;;3.13;2.50;;;18.80;65.10;;;;;;5104468;28;20412;-69
2021/03/29 10:23:33;;;;;;;2.17;1.67;;;19.10;65.80;;;;;;5114454;28;20881;-67
2021/03/29 10:26:28;;;;;;;3.27;2.33;;;19.00;64.90;;;;;;5123480;28;20456;-66
2021/03/29 10:28:59;;;;;;;3.50;2.30;;;19.30;64.60;;;;;;5122938;28;20984;-67
2021/03/29 10:31:26;;;;;;;2.47;1.77;;;19.20;65.30;;;;;;5118591;28;20434;-66
2021/03/29 10:33:52;;;;;;;2.33;1.70;;;18.70;65.10;;;;;;5115911;28;20975;-66
2021/03/29 10:36:19;;;;;;;1.83;1.50;;;18.20;64.10;;;;;;5115216;27;20423;-66
2021/03/29 10:38:45;;;;;;;2.00;1.80;;;18.20;64.60;;;;;;5121699;27;20199;-68
2021/03/29 10:41:11;;;;;;;5.63;2.50;;;18.70;64.10;;;;;;5128148;27;20946;-66
2021/03/29 10:43:38;;;;;;;4.00;1.87;;;19.10;63.80;;;;;;5120970;27;20455;-66
2021/03/29 10:46:04;;;;;;;1.73;1.63;;;19.40;64.20;;;;;;5122397;27;20499;-66
2021/03/29 10:48:30;;;;;;;2.13;1.50;;;19.80;62.80;;;;;;5119911;27;20486;-69
2021/03/29 10:50:57;;;;;;;1.40;1.30;;;19.90;63.50;;;;;;5114581;27;20439;-66
2021/03/29 10:53:23;;;;;;;4.40;2.23;;;20.10;63.20;;;;;;5123069;27;20195;-68
2021/03/29 10:55:49;;;;;;;2.60;1.83;;;19.80;62.20;;;;;;5117766;27;20424;-69
2021/03/29 10:58:15;;;;;;;1.83;1.60;;;20.30;63.30;;;;;;5116446;27;20222;-66
2021/03/29 11:00:40;;;;;;;4.00;1.77;;;19.90;59.80;;;;;;5119203;27;20420;-69
2021/03/29 11:03:06;;;;;;;3.67;2.23;;;19.90;62.00;;;;;;5119497;27;20710;-67
2021/03/29 11:05:32;;;;;;;1.77;1.27;;;19.70;61.50;;;;;;5119477;27;20186;-69
2021/03/29 11:07:57;;;;;;;1.40;1.30;;;19.60;62.40;;;;;;5106128;27;20593;-69
2021/03/29 11:10:23;;;;;;;1.80;1.50;;;19.30;61.20;;;;;;5119796;27;20848;-66
2021/03/29 11:12:49;;;;;;;2.00;1.10;;;19.00;61.00;;;;;;5128855;27;20743;-69
2021/03/29 11:15:14;;;;;;;2.33;1.33;;;19.00;62.30;;;;;;5111563;27;20219;-69
2021/03/29 11:17:40;;;;;;;2.60;1.40;;;19.30;62.50;;;;;;5126025;27;20551;-69
2021/03/29 11:20:07;;;;;;;1.87;1.33;;;19.20;61.10;;;;;;5123414;27;20829;-69
2021/03/29 11:22:32;;;;;;;1.63;1.40;;;19.50;62.10;;;;;;5117266;27;20275;-68
2021/03/29 11:24:58;;;;;;;1.90;1.43;;;19.60;61.80;;;;;;5128290;27;21548;-68
2021/03/29 11:27:23;;;;;;;1.53;1.43;;;19.10;59.40;;;;;;5123555;27;20657;-69
2021/03/29 11:29:50;;;;;;;1.50;1.40;;;19.80;60.60;;;;;;5121731;27;20605;-66
2021/03/29 11:32:16;;;;;;;2.73;1.37;;;20.10;60.80;;;;;;5133052;27;20190;-69
2021/03/29 11:34:41;;;;;;;2.60;1.77;;;20.40;60.70;;;;;;5128401;27;20446;-66
2021/03/29 11:37:07;;;;;;;1.70;1.50;;;20.70;60.10;;;;;;5130732;27;20179;-68
2021/03/29 11:39:33;;;;;;;1.57;1.33;;;20.50;59.20;;;;;;5121093;27;20234;-65
2021/03/29 11:41:58;;;;;;;2.23;1.77;;;20.60;59.90;;;;;;5120813;27;20221;-65
2021/03/29 11:44:24;;;;;;;2.83;1.70;;;20.80;60.20;;;;;;5118983;27;20282;-68
2021/03/29 11:46:52;;;;;;;1.77;1.63;;;21.10;58.40;;;;;;5122104;27;20238;-69
2021/03/29 11:49:17;;;;;;;2.60;1.50;;;21.10;59.10;;;;;;5110754;27;20262;-66
2021/03/29 11:51:43;;;;;;;1.70;1.60;;;21.30;58.60;;;;;;5128952;27;20451;-68
2021/03/29 11:54:09;;;;;;;2.10;1.47;;;21.40;57.50;;;;;;5119307;27;20242;-66
2021/03/29 11:56:38;;;;;;;1.43;1.30;;;21.00;58.50;;;;;;5122736;27;20183;-69
2021/03/29 11:59:04;;;;;;;2.40;1.80;;;20.70;58.00;;;;;;5124362;27;20563;-66
2021/03/29 12:04:04;;;;;;;1.57;1.10;;;20.80;59.00;;;;;;5121460;27;20448;-65
2021/03/29 12:11:58;;;;;;;9.43;4.20;;;21.40;57.80;;;;;;5122243;27;20577;-66
2021/03/29 12:14:30;;;;;;;1.90;1.40;;;21.10;57.60;;;;;;5123174;27;20440;-66
2021/03/29 12:16:57;;;;;;;5.13;3.60;;;21.10;57.80;;;;;;5119034;27;20951;-68
2021/03/29 12:19:23;;;;;;;6.33;3.40;;;20.80;57.40;;;;;;5106025;27;20807;-70
2021/03/29 12:21:53;;;;;;;3.43;2.40;;;21.10;58.30;;;;;;5121441;27;20445;-69
2021/03/29 12:24:21;;;;;;;10.43;3.57;;;21.40;58.80;;;;;;5124003;27;20846;-68
2021/03/29 12:26:48;;;;;;;2.37;1.80;;;21.00;58.30;;;;;;5119944;27;20835;-66
2021/03/29 12:29:17;;;;;;;2.17;1.97;;;21.10;58.90;;;;;;5122654;27;20836;-68
2021/03/29 12:31:44;;;;;;;2.17;1.70;;;20.90;59.30;;;;;;5126945;27;20784;-66
2021/03/29 12:34:10;;;;;;;2.50;1.97;;;20.70;59.00;;;;;;5124378;27;20440;-68
2021/03/29 12:36:43;;;;;;;1.77;1.60;;;20.60;58.90;;;;;;5124395;27;20788;-66
2021/03/29 12:41:44;;;;;;;17.53;6.50;;;20.40;58.00;;;;;;5122052;27;20828;-65
2021/03/29 12:44:17;;;;;;;4.40;2.17;;;20.60;58.70;;;;;;5125222;27;20956;-68
2021/03/29 12:46:47;;;;;;;1.83;1.70;;;20.70;58.30;;;;;;5116502;27;20468;-65
2021/03/29 12:49:14;;;;;;;2.73;1.63;;;20.60;57.90;;;;;;5120718;27;20695;-66
2021/03/29 12:51:41;;;;;;;2.03;1.70;;;20.90;58.40;;;;;;5122240;27;20436;-65
2021/03/29 12:54:21;;;;;;;1.73;1.63;;;20.90;57.90;;;;;;5126202;27;20439;-70
2021/03/29 12:56:47;;;;;;;3.80;1.40;;;20.90;58.10;;;;;;5132631;27;20435;-66
2021/03/29 12:59:12;;;;;;;1.63;1.53;;;20.60;58.70;;;;;;5118222;27;20448;-66
2021/03/29 13:01:40;;;;;;;1.50;1.30;;;20.80;59.80;;;;;;5102153;27;20296;-66
2021/03/29 13:04:13;;;;;;;2.87;1.47;;;21.40;58.40;;;;;;5107405;27;20262;-67
2021/03/29 13:06:49;;;;;;;2.10;1.90;;;21.50;57.50;;;;;;5107358;27;20439;-66
2021/03/29 13:09:26;;;;;;;3.37;1.47;;;21.60;58.00;;;;;;5121964;27;20487;-69
2021/03/29 13:11:55;;;;;;;2.20;1.60;;;21.40;56.80;;;;;;5125455;27;20536;-69
2021/03/29 13:14:21;;;;;;;1.77;1.60;;;21.80;57.80;;;;;;5115049;27;20452;-69
2021/03/29 13:16:46;;;;;;;1.73;1.57;;;22.00;55.90;;;;;;5123662;27;20510;-66